sensor_id;sensor_type;location;lat;lon;timestamp;P1;durP1;ratioP1;P2;durP2;ratioP2
64938;SDS011;51453;47.738;7.420;2023-08-30T00:00:14;9.30;;;8.50;;
64938;SDS011;51453;47.738;7.420;2023-08-30T00:02:42;9.60;;;8.63;;
64938;SDS011;51453;47.738;7.420;2023-08-30T00:05:09;9.65;;;8.70;;
64938;SDS011;51453;47.738;7.420;2023-08-30T00:07:35;9.27;;;7.85;;
64938;SDS011;51453;47.738;7.420;2023-08-30T00:10:01;8.40;;;7.57;;
64938;SDS011;51453;47.738;7.420;2023-08-30T00:12:27;9.73;;;7.78;;
64938;SDS011;51453;47.738;7.420;2023-08-30T00:14:53;8.82;;;7.43;;
64938;SDS011;51453;47.738;7.420;2023-08-30T00:17:19;7.18;;;6.47;;
64938;SDS011;51453;47.738;7.420;2023-08-30T00:19:45;7.68;;;6.97;;
64938;SDS011;51453;47.738;7.420;2023-08-30T00:22:10;8.65;;;6.47;;
64938;SDS011;51453;47.738;7.420;2023-08-30T00:24:37;9.98;;;7.15;;
64938;SDS011;51453;47.738;7.420;2023-08-30T00:27:03;10.20;;;6.40;;
64938;SDS011;51453;47.738;7.420;2023-08-30T00:29:29;7.35;;;6.57;;
64938;SDS011;51453;47.738;7.420;2023-08-30T00:31:55;7.63;;;6.93;;
64938;SDS011;51453;47.738;7.420;2023-08-30T00:34:21;6.53;;;5.93;;
64938;SDS011;51453;47.738;7.420;2023-08-30T00:36:47;9.25;;;6.50;;
64938;SDS011;51453;47.738;7.420;2023-08-30T00:39:12;6.57;;;5.97;;
64938;SDS011;51453;47.738;7.420;2023-08-30T00:41:38;7.07;;;5.85;;
64938;SDS011;51453;47.738;7.420;2023-08-30T00:44:04;6.45;;;5.85;;
64938;SDS011;51453;47.738;7.420;2023-08-30T00:46:30;6.10;;;5.60;;
64938;SDS011;51453;47.738;7.420;2023-08-30T00:48:58;6.50;;;5.88;;
64938;SDS011;51453;47.738;7.420;2023-08-30T00:51:24;5.78;;;5.18;;
64938;SDS011;51453;47.738;7.420;2023-08-30T00:53:50;6.22;;;5.63;;
64938;SDS011;51453;47.738;7.420;2023-08-30T00:56:16;5.93;;;5.32;;
64938;SDS011;51453;47.738;7.420;2023-08-30T00:58:43;5.53;;;5.07;;
64938;SDS011;51453;47.738;7.420;2023-08-30T01:01:09;7.28;;;5.47;;
64938;SDS011;51453;47.738;7.420;2023-08-30T01:03:35;6.53;;;5.05;;
64938;SDS011;51453;47.738;7.420;2023-08-30T01:06:02;5.80;;;4.78;;
64938;SDS011;51453;47.738;7.420;2023-08-30T01:08:28;5.68;;;5.15;;
64938;SDS011;51453;47.738;7.420;2023-08-30T01:11:38;5.43;;;4.93;;
64938;SDS011;51453;47.738;7.420;2023-08-30T01:13:50;5.95;;;4.95;;
64938;SDS011;51453;47.738;7.420;2023-08-30T01:16:30;5.70;;;4.95;;
64938;SDS011;51453;47.738;7.420;2023-08-30T01:18:56;5.20;;;4.70;;
64938;SDS011;51453;47.738;7.420;2023-08-30T01:24:26;5.30;;;4.90;;
64938;SDS011;51453;47.738;7.420;2023-08-30T01:27:12;7.55;;;4.93;;
64938;SDS011;51453;47.738;7.420;2023-08-30T01:29:40;6.57;;;5.00;;
64938;SDS011;51453;47.738;7.420;2023-08-30T01:32:09;5.40;;;4.90;;
64938;SDS011;51453;47.738;7.420;2023-08-30T01:34:36;7.82;;;5.30;;
64938;SDS011;51453;47.738;7.420;2023-08-30T01:37:04;6.38;;;5.80;;
64938;SDS011;51453;47.738;7.420;2023-08-30T01:39:36;6.82;;;6.13;;
64938;SDS011;51453;47.738;7.420;2023-08-30T01:42:02;5.93;;;5.13;;
64938;SDS011;51453;47.738;7.420;2023-08-30T01:44:29;6.30;;;5.55;;
64938;SDS011;51453;47.738;7.420;2023-08-30T01:46:58;5.95;;;5.38;;
64938;SDS011;51453;47.738;7.420;2023-08-30T01:49:25;6.85;;;5.70;;
64938;SDS011;51453;47.738;7.420;2023-08-30T01:51:51;6.00;;;5.50;;
64938;SDS011;51453;47.738;7.420;2023-08-30T01:54:18;6.90;;;6.30;;
64938;SDS011;51453;47.738;7.420;2023-08-30T01:56:45;7.10;;;6.40;;
64938;SDS011;51453;47.738;7.420;2023-08-30T01:59:11;6.38;;;5.80;;
64938;SDS011;51453;47.738;7.420;2023-08-30T02:01:37;6.57;;;5.97;;
64938;SDS011;51453;47.738;7.420;2023-08-30T02:04:03;8.90;;;6.32;;
64938;SDS011;51453;47.738;7.420;2023-08-30T02:11:59;7.40;;;6.32;;
64938;SDS011;51453;47.738;7.420;2023-08-30T02:14:28;8.38;;;6.43;;
64938;SDS011;51453;47.738;7.420;2023-08-30T02:16:55;7.22;;;6.50;;
64938;SDS011;51453;47.738;7.420;2023-08-30T02:19:21;6.53;;;5.65;;
64938;SDS011;51453;47.738;7.420;2023-08-30T02:21:47;6.85;;;6.25;;
64938;SDS011;51453;47.738;7.420;2023-08-30T02:24:13;7.50;;;6.45;;
64938;SDS011;51453;47.738;7.420;2023-08-30T02:26:39;7.22;;;6.38;;
64938;SDS011;51453;47.738;7.420;2023-08-30T02:29:05;7.18;;;6.30;;
64938;SDS011;51453;47.738;7.420;2023-08-30T02:31:31;7.00;;;6.40;;
64938;SDS011;51453;47.738;7.420;2023-08-30T02:33:56;8.13;;;6.68;;
64938;SDS011;51453;47.738;7.420;2023-08-30T02:36:22;8.30;;;6.47;;
64938;SDS011;51453;47.738;7.420;2023-08-30T02:38:48;8.30;;;7.30;;
64938;SDS011;51453;47.738;7.420;2023-08-30T02:41:13;7.95;;;7.15;;
64938;SDS011;51453;47.738;7.420;2023-08-30T02:43:39;7.55;;;6.90;;
64938;SDS011;51453;47.738;7.420;2023-08-30T02:46:04;9.68;;;7.75;;
64938;SDS011;51453;47.738;7.420;2023-08-30T02:48:31;8.98;;;7.82;;
64938;SDS011;51453;47.738;7.420;2023-08-30T02:50:57;8.38;;;7.57;;
64938;SDS011;51453;47.738;7.420;2023-08-30T02:53:22;9.68;;;7.65;;
64938;SDS011;51453;47.738;7.420;2023-08-30T02:55:48;8.15;;;7.22;;
64938;SDS011;51453;47.738;7.420;2023-08-30T02:58:14;11.85;;;7.40;;
64938;SDS011;51453;47.738;7.420;2023-08-30T03:00:39;10.63;;;8.20;;
64938;SDS011;51453;47.738;7.420;2023-08-30T03:03:05;9.75;;;8.10;;
64938;SDS011;51453;47.738;7.420;2023-08-30T03:05:30;9.77;;;7.90;;
64938;SDS011;51453;47.738;7.420;2023-08-30T03:07:56;8.98;;;7.72;;
64938;SDS011;51453;47.738;7.420;2023-08-30T03:10:22;8.55;;;7.60;;
64938;SDS011;51453;47.738;7.420;2023-08-30T03:12:48;8.38;;;7.57;;
64938;SDS011;51453;47.738;7.420;2023-08-30T03:15:13;10.10;;;7.80;;
64938;SDS011;51453;47.738;7.420;2023-08-30T03:17:39;8.98;;;8.07;;
64938;SDS011;51453;47.738;7.420;2023-08-30T03:20:04;9.20;;;8.30;;
64938;SDS011;51453;47.738;7.420;2023-08-30T03:22:31;14.45;;;8.10;;
64938;SDS011;51453;47.738;7.420;2023-08-30T03:24:57;8.65;;;7.85;;
64938;SDS011;51453;47.738;7.420;2023-08-30T03:27:23;10.00;;;7.85;;
64938;SDS011;51453;47.738;7.420;2023-08-30T03:29:49;9.60;;;7.95;;
64938;SDS011;51453;47.738;7.420;2023-08-30T03:32:15;9.13;;;8.23;;
64938;SDS011;51453;47.738;7.420;2023-08-30T03:34:46;8.55;;;7.63;;
64938;SDS011;51453;47.738;7.420;2023-08-30T03:37:15;8.50;;;7.80;;
64938;SDS011;51453;47.738;7.420;2023-08-30T03:39:41;8.35;;;7.55;;
64938;SDS011;51453;47.738;7.420;2023-08-30T03:42:06;8.80;;;7.15;;
64938;SDS011;51453;47.738;7.420;2023-08-30T03:44:32;8.40;;;7.47;;
64938;SDS011;51453;47.738;7.420;2023-08-30T03:46:58;8.20;;;7.40;;
64938;SDS011;51453;47.738;7.420;2023-08-30T03:49:24;8.75;;;7.25;;
64938;SDS011;51453;47.738;7.420;2023-08-30T03:51:49;11.57;;;7.22;;
64938;SDS011;51453;47.738;7.420;2023-08-30T03:54:15;7.35;;;6.70;;
64938;SDS011;51453;47.738;7.420;2023-08-30T03:56:44;8.18;;;6.47;;
64938;SDS011;51453;47.738;7.420;2023-08-30T03:59:09;6.40;;;5.80;;
64938;SDS011;51453;47.738;7.420;2023-08-30T04:01:36;6.15;;;5.55;;
64938;SDS011;51453;47.738;7.420;2023-08-30T04:04:01;6.45;;;5.50;;
64938;SDS011;51453;47.738;7.420;2023-08-30T04:06:27;6.68;;;5.22;;
64938;SDS011;51453;47.738;7.420;2023-08-30T04:08:52;5.60;;;5.10;;
64938;SDS011;51453;47.738;7.420;2023-08-30T04:11:18;5.57;;;5.07;;
64938;SDS011;51453;47.738;7.420;2023-08-30T04:13:44;6.32;;;5.72;;
64938;SDS011;51453;47.738;7.420;2023-08-30T04:16:09;6.15;;;5.47;;
64938;SDS011;51453;47.738;7.420;2023-08-30T04:18:35;6.13;;;5.53;;
64938;SDS011;51453;47.738;7.420;2023-08-30T04:21:01;5.85;;;5.35;;
64938;SDS011;51453;47.738;7.420;2023-08-30T04:23:27;6.30;;;5.70;;
64938;SDS011;51453;47.738;7.420;2023-08-30T04:25:54;6.07;;;5.47;;
64938;SDS011;51453;47.738;7.420;2023-08-30T04:28:20;8.50;;;5.97;;
64938;SDS011;51453;47.738;7.420;2023-08-30T04:30:46;6.95;;;6.28;;
64938;SDS011;51453;47.738;7.420;2023-08-30T04:33:12;6.75;;;6.00;;
64938;SDS011;51453;47.738;7.420;2023-08-30T04:35:38;6.70;;;6.05;;
64938;SDS011;51453;47.738;7.420;2023-08-30T04:38:04;6.35;;;5.75;;
64938;SDS011;51453;47.738;7.420;2023-08-30T04:40:30;6.30;;;5.80;;
64938;SDS011;51453;47.738;7.420;2023-08-30T04:43:00;7.05;;;6.43;;
64938;SDS011;51453;47.738;7.420;2023-08-30T04:45:26;6.75;;;6.20;;
64938;SDS011;51453;47.738;7.420;2023-08-30T04:47:52;6.57;;;5.97;;
64938;SDS011;51453;47.738;7.420;2023-08-30T04:50:18;7.47;;;6.13;;
64938;SDS011;51453;47.738;7.420;2023-08-30T04:52:43;6.80;;;6.10;;
64938;SDS011;51453;47.738;7.420;2023-08-30T04:55:09;6.10;;;5.60;;
64938;SDS011;51453;47.738;7.420;2023-08-30T04:57:35;10.13;;;6.60;;
64938;SDS011;51453;47.738;7.420;2023-08-30T05:00:01;7.78;;;6.40;;
64938;SDS011;51453;47.738;7.420;2023-08-30T05:02:29;7.10;;;6.50;;
64938;SDS011;51453;47.738;7.420;2023-08-30T05:04:55;7.10;;;6.40;;
64938;SDS011;51453;47.738;7.420;2023-08-30T05:07:21;7.68;;;6.85;;
64938;SDS011;51453;47.738;7.420;2023-08-30T05:09:47;7.40;;;6.70;;
64938;SDS011;51453;47.738;7.420;2023-08-30T05:12:12;9.27;;;6.75;;
64938;SDS011;51453;47.738;7.420;2023-08-30T05:14:38;7.20;;;6.60;;
64938;SDS011;51453;47.738;7.420;2023-08-30T05:17:05;7.13;;;6.43;;
64938;SDS011;51453;47.738;7.420;2023-08-30T05:19:31;7.43;;;6.72;;
64938;SDS011;51453;47.738;7.420;2023-08-30T05:21:57;6.82;;;6.22;;
64938;SDS011;51453;47.738;7.420;2023-08-30T05:24:22;7.32;;;6.72;;
64938;SDS011;51453;47.738;7.420;2023-08-30T05:26:48;10.00;;;7.78;;
64938;SDS011;51453;47.738;7.420;2023-08-30T05:29:14;8.60;;;7.38;;
64938;SDS011;51453;47.738;7.420;2023-08-30T05:31:40;11.35;;;7.63;;
64938;SDS011;51453;47.738;7.420;2023-08-30T05:34:06;8.18;;;7.38;;
64938;SDS011;51453;47.738;7.420;2023-08-30T05:36:32;9.63;;;7.63;;
64938;SDS011;51453;47.738;7.420;2023-08-30T05:38:57;8.18;;;7.25;;
64938;SDS011;51453;47.738;7.420;2023-08-30T05:41:23;10.27;;;7.72;;
64938;SDS011;51453;47.738;7.420;2023-08-30T05:43:49;7.95;;;7.25;;
64938;SDS011;51453;47.738;7.420;2023-08-30T05:46:14;7.72;;;6.85;;
64938;SDS011;51453;47.738;7.420;2023-08-30T05:48:40;7.90;;;7.22;;
64938;SDS011;51453;47.738;7.420;2023-08-30T05:51:06;7.78;;;6.97;;
64938;SDS011;51453;47.738;7.420;2023-08-30T05:53:32;8.23;;;7.43;;
64938;SDS011;51453;47.738;7.420;2023-08-30T05:55:58;8.93;;;7.53;;
64938;SDS011;51453;47.738;7.420;2023-08-30T05:58:23;7.95;;;7.15;;
64938;SDS011;51453;47.738;7.420;2023-08-30T06:00:49;9.85;;;7.75;;
64938;SDS011;51453;47.738;7.420;2023-08-30T06:03:14;9.23;;;7.05;;
64938;SDS011;51453;47.738;7.420;2023-08-30T06:05:41;8.93;;;7.38;;
64938;SDS011;51453;47.738;7.420;2023-08-30T06:08:08;8.57;;;7.03;;
64938;SDS011;51453;47.738;7.420;2023-08-30T06:10:33;9.73;;;7.45;;
64938;SDS011;51453;47.738;7.420;2023-08-30T06:13:00;7.50;;;6.80;;
64938;SDS011;51453;47.738;7.420;2023-08-30T06:15:25;7.93;;;6.90;;
64938;SDS011;51453;47.738;7.420;2023-08-30T06:17:51;8.27;;;7.47;;
64938;SDS011;51453;47.738;7.420;2023-08-30T06:20:17;7.53;;;6.80;;
64938;SDS011;51453;47.738;7.420;2023-08-30T06:22:42;7.50;;;6.80;;
64938;SDS011;51453;47.738;7.420;2023-08-30T06:25:08;7.22;;;6.53;;
64938;SDS011;51453;47.738;7.420;2023-08-30T06:27:41;7.57;;;6.80;;
64938;SDS011;51453;47.738;7.420;2023-08-30T06:30:11;9.68;;;7.00;;
64938;SDS011;51453;47.738;7.420;2023-08-30T06:32:37;8.48;;;7.60;;
64938;SDS011;51453;47.738;7.420;2023-08-30T06:35:02;8.63;;;7.68;;
64938;SDS011;51453;47.738;7.420;2023-08-30T06:37:29;9.48;;;7.30;;
64938;SDS011;51453;47.738;7.420;2023-08-30T06:39:54;7.82;;;7.03;;
64938;SDS011;51453;47.738;7.420;2023-08-30T06:42:20;8.25;;;7.38;;
64938;SDS011;51453;47.738;7.420;2023-08-30T06:44:46;8.13;;;7.30;;
64938;SDS011;51453;47.738;7.420;2023-08-30T06:47:11;8.00;;;7.20;;
64938;SDS011;51453;47.738;7.420;2023-08-30T06:49:37;8.45;;;7.65;;
64938;SDS011;51453;47.738;7.420;2023-08-30T06:52:03;8.40;;;7.60;;
64938;SDS011;51453;47.738;7.420;2023-08-30T06:54:32;8.60;;;7.57;;
64938;SDS011;51453;47.738;7.420;2023-08-30T06:56:59;9.60;;;7.05;;
64938;SDS011;51453;47.738;7.420;2023-08-30T06:59:26;12.95;;;8.25;;
64938;SDS011;51453;47.738;7.420;2023-08-30T07:01:52;9.75;;;7.80;;
64938;SDS011;51453;47.738;7.420;2023-08-30T07:04:18;9.02;;;7.88;;
64938;SDS011;51453;47.738;7.420;2023-08-30T07:06:44;10.35;;;7.22;;
64938;SDS011;51453;47.738;7.420;2023-08-30T07:09:10;8.90;;;7.32;;
64938;SDS011;51453;47.738;7.420;2023-08-30T07:11:36;8.52;;;7.18;;
64938;SDS011;51453;47.738;7.420;2023-08-30T07:14:03;7.80;;;7.00;;
64938;SDS011;51453;47.738;7.420;2023-08-30T07:16:29;8.10;;;6.47;;
64938;SDS011;51453;47.738;7.420;2023-08-30T07:18:57;9.80;;;7.22;;
64938;SDS011;51453;47.738;7.420;2023-08-30T07:21:25;11.63;;;7.22;;
64938;SDS011;51453;47.738;7.420;2023-08-30T07:23:51;11.93;;;7.43;;
64938;SDS011;51453;47.738;7.420;2023-08-30T07:26:16;7.40;;;6.55;;
64938;SDS011;51453;47.738;7.420;2023-08-30T07:28:42;8.90;;;7.13;;
64938;SDS011;51453;47.738;7.420;2023-08-30T07:31:08;8.77;;;6.43;;
64938;SDS011;51453;47.738;7.420;2023-08-30T07:33:35;8.48;;;6.47;;
64938;SDS011;51453;47.738;7.420;2023-08-30T07:36:00;8.07;;;6.03;;
64938;SDS011;51453;47.738;7.420;2023-08-30T07:38:26;10.52;;;5.88;;
64938;SDS011;51453;47.738;7.420;2023-08-30T07:40:53;9.30;;;6.45;;
64938;SDS011;51453;47.738;7.420;2023-08-30T07:43:18;6.72;;;5.70;;
64938;SDS011;51453;47.738;7.420;2023-08-30T07:45:44;8.68;;;5.88;;
64938;SDS011;51453;47.738;7.420;2023-08-30T07:48:10;5.78;;;4.53;;
64938;SDS011;51453;47.738;7.420;2023-08-30T07:50:36;5.07;;;4.57;;
64938;SDS011;51453;47.738;7.420;2023-08-30T07:53:02;5.25;;;4.47;;
64938;SDS011;51453;47.738;7.420;2023-08-30T07:55:27;4.97;;;4.57;;
64938;SDS011;51453;47.738;7.420;2023-08-30T07:57:53;5.28;;;4.60;;
64938;SDS011;51453;47.738;7.420;2023-08-30T08:00:19;6.22;;;4.20;;
64938;SDS011;51453;47.738;7.420;2023-08-30T08:02:44;4.18;;;3.88;;
64938;SDS011;51453;47.738;7.420;2023-08-30T08:05:10;4.50;;;4.10;;
64938;SDS011;51453;47.738;7.420;2023-08-30T08:07:37;4.35;;;4.05;;
64938;SDS011;51453;47.738;7.420;2023-08-30T08:10:05;4.78;;;4.20;;
64938;SDS011;51453;47.738;7.420;2023-08-30T08:12:32;5.10;;;4.03;;
64938;SDS011;51453;47.738;7.420;2023-08-30T08:14:58;4.47;;;4.18;;
64938;SDS011;51453;47.738;7.420;2023-08-30T08:17:24;5.30;;;4.35;;
64938;SDS011;51453;47.738;7.420;2023-08-30T08:19:49;4.53;;;4.13;;
64938;SDS011;51453;47.738;7.420;2023-08-30T08:22:15;4.47;;;4.18;;
64938;SDS011;51453;47.738;7.420;2023-08-30T08:24:41;5.57;;;4.53;;
64938;SDS011;51453;47.738;7.420;2023-08-30T08:27:08;3.90;;;3.60;;
64938;SDS011;51453;47.738;7.420;2023-08-30T08:29:34;6.68;;;4.50;;
64938;SDS011;51453;47.738;7.420;2023-08-30T08:32:00;5.25;;;4.75;;
64938;SDS011;51453;47.738;7.420;2023-08-30T08:34:25;5.07;;;4.20;;
64938;SDS011;51453;47.738;7.420;2023-08-30T08:36:51;5.05;;;4.18;;
64938;SDS011;51453;47.738;7.420;2023-08-30T08:39:16;4.25;;;3.92;;
64938;SDS011;51453;47.738;7.420;2023-08-30T08:41:43;4.72;;;3.95;;
64938;SDS011;51453;47.738;7.420;2023-08-30T08:44:10;5.07;;;4.45;;
64938;SDS011;51453;47.738;7.420;2023-08-30T08:46:38;6.00;;;3.95;;
64938;SDS011;51453;47.738;7.420;2023-08-30T08:49:08;4.53;;;4.13;;
64938;SDS011;51453;47.738;7.420;2023-08-30T08:51:35;4.32;;;3.92;;
64938;SDS011;51453;47.738;7.420;2023-08-30T08:54:03;4.20;;;3.60;;
64938;SDS011;51453;47.738;7.420;2023-08-30T08:56:32;4.90;;;4.40;;
64938;SDS011;51453;47.738;7.420;2023-08-30T08:58:59;4.45;;;4.05;;
64938;SDS011;51453;47.738;7.420;2023-08-30T09:01:25;4.82;;;4.38;;
64938;SDS011;51453;47.738;7.420;2023-08-30T09:03:51;4.72;;;4.20;;
64938;SDS011;51453;47.738;7.420;2023-08-30T09:06:17;4.10;;;3.80;;
64938;SDS011;51453;47.738;7.420;2023-08-30T09:08:43;5.03;;;3.60;;
64938;SDS011;51453;47.738;7.420;2023-08-30T09:11:09;6.55;;;3.40;;
64938;SDS011;51453;47.738;7.420;2023-08-30T09:13:35;4.72;;;3.42;;
64938;SDS011;51453;47.738;7.420;2023-08-30T09:16:01;4.85;;;3.13;;
64938;SDS011;51453;47.738;7.420;2023-08-30T09:18:29;3.92;;;3.17;;
64938;SDS011;51453;47.738;7.420;2023-08-30T09:21:04;3.05;;;2.60;;
64938;SDS011;51453;47.738;7.420;2023-08-30T09:23:31;3.72;;;3.00;;
64938;SDS011;51453;47.738;7.420;2023-08-30T09:25:58;4.30;;;2.70;;
64938;SDS011;51453;47.738;7.420;2023-08-30T09:28:24;3.90;;;2.78;;
64938;SDS011;51453;47.738;7.420;2023-08-30T09:30:50;2.65;;;2.45;;
64938;SDS011;51453;47.738;7.420;2023-08-30T09:33:22;4.03;;;2.72;;
64938;SDS011;51453;47.738;7.420;2023-08-30T09:35:54;3.40;;;2.58;;
64938;SDS011;51453;47.738;7.420;2023-08-30T09:38:20;2.83;;;2.63;;
64938;SDS011;51453;47.738;7.420;2023-08-30T09:40:46;4.13;;;3.03;;
64938;SDS011;51453;47.738;7.420;2023-08-30T09:43:12;4.70;;;2.80;;
64938;SDS011;51453;47.738;7.420;2023-08-30T09:45:39;4.20;;;2.70;;
64938;SDS011;51453;47.738;7.420;2023-08-30T09:48:06;5.97;;;3.00;;
64938;SDS011;51453;47.738;7.420;2023-08-30T09:50:33;3.13;;;2.67;;
64938;SDS011;51453;47.738;7.420;2023-08-30T09:53:01;3.00;;;2.80;;
64938;SDS011;51453;47.738;7.420;2023-08-30T09:55:34;2.80;;;2.60;;
64938;SDS011;51453;47.738;7.420;2023-08-30T09:58:01;2.97;;;2.67;;
64938;SDS011;51453;47.738;7.420;2023-08-30T10:00:29;2.92;;;2.50;;
64938;SDS011;51453;47.738;7.420;2023-08-30T10:02:55;3.88;;;3.05;;
64938;SDS011;51453;47.738;7.420;2023-08-30T10:05:23;3.42;;;3.13;;
64938;SDS011;51453;47.738;7.420;2023-08-30T10:07:50;2.95;;;2.75;;
64938;SDS011;51453;47.738;7.420;2023-08-30T10:10:18;3.33;;;2.75;;
64938;SDS011;51453;47.738;7.420;2023-08-30T10:12:45;3.33;;;2.92;;
64938;SDS011;51453;47.738;7.420;2023-08-30T10:15:12;2.65;;;2.50;;
64938;SDS011;51453;47.738;7.420;2023-08-30T10:17:38;3.85;;;3.08;;
64938;SDS011;51453;47.738;7.420;2023-08-30T10:20:09;3.28;;;2.63;;
64938;SDS011;51453;47.738;7.420;2023-08-30T10:22:37;3.13;;;2.80;;
64938;SDS011;51453;47.738;7.420;2023-08-30T10:25:15;5.78;;;2.80;;
64938;SDS011;51453;47.738;7.420;2023-08-30T10:27:46;3.92;;;2.58;;
64938;SDS011;51453;47.738;7.420;2023-08-30T10:30:13;2.58;;;2.38;;
64938;SDS011;51453;47.738;7.420;2023-08-30T10:32:41;4.03;;;2.33;;
64938;SDS011;51453;47.738;7.420;2023-08-30T10:35:10;8.00;;;2.50;;
64938;SDS011;51453;47.738;7.420;2023-08-30T10:37:37;2.90;;;2.08;;
64938;SDS011;51453;47.738;7.420;2023-08-30T10:40:03;2.08;;;1.98;;
64938;SDS011;51453;47.738;7.420;2023-08-30T10:42:31;4.95;;;2.30;;
64938;SDS011;51453;47.738;7.420;2023-08-30T10:47:33;2.22;;;2.03;;
64938;SDS011;51453;47.738;7.420;2023-08-30T10:50:27;2.10;;;2.00;;
64938;SDS011;51453;47.738;7.420;2023-08-30T10:52:55;2.03;;;1.50;;
64938;SDS011;51453;47.738;7.420;2023-08-30T10:55:22;3.63;;;1.20;;
64938;SDS011;51453;47.738;7.420;2023-08-30T10:57:57;4.10;;;1.70;;
64938;SDS011;51453;47.738;7.420;2023-08-30T11:00:24;2.78;;;1.65;;
64938;SDS011;51453;47.738;7.420;2023-08-30T11:02:50;2.53;;;1.60;;
64938;SDS011;51453;47.738;7.420;2023-08-30T11:05:17;3.13;;;1.40;;
64938;SDS011;51453;47.738;7.420;2023-08-30T11:07:46;2.10;;;1.52;;
64938;SDS011;51453;47.738;7.420;2023-08-30T11:10:13;2.08;;;1.60;;
64938;SDS011;51453;47.738;7.420;2023-08-30T11:12:40;2.05;;;1.50;;
64938;SDS011;51453;47.738;7.420;2023-08-30T11:15:07;1.50;;;1.40;;
64938;SDS011;51453;47.738;7.420;2023-08-30T11:17:33;3.20;;;1.48;;
64938;SDS011;51453;47.738;7.420;2023-08-30T11:22:38;4.68;;;1.73;;
64938;SDS011;51453;47.738;7.420;2023-08-30T11:25:10;1.95;;;1.40;;
64938;SDS011;51453;47.738;7.420;2023-08-30T11:27:37;1.30;;;1.20;;
64938;SDS011;51453;47.738;7.420;2023-08-30T11:30:03;2.55;;;1.30;;
64938;SDS011;51453;47.738;7.420;2023-08-30T11:32:37;1.95;;;1.20;;
64938;SDS011;51453;47.738;7.420;2023-08-30T11:35:09;1.88;;;1.23;;
64938;SDS011;51453;47.738;7.420;2023-08-30T11:37:35;1.65;;;1.52;;
64938;SDS011;51453;47.738;7.420;2023-08-30T11:40:01;2.50;;;1.40;;
64938;SDS011;51453;47.738;7.420;2023-08-30T11:42:29;4.15;;;1.50;;
64938;SDS011;51453;47.738;7.420;2023-08-30T11:44:55;4.50;;;1.63;;
64938;SDS011;51453;47.738;7.420;2023-08-30T11:47:23;1.55;;;1.38;;
64938;SDS011;51453;47.738;7.420;2023-08-30T11:49:52;3.05;;;1.45;;
64938;SDS011;51453;47.738;7.420;2023-08-30T11:52:18;2.25;;;1.20;;
64938;SDS011;51453;47.738;7.420;2023-08-30T11:54:48;2.25;;;1.40;;
64938;SDS011;51453;47.738;7.420;2023-08-30T11:57:14;1.05;;;0.95;;
64938;SDS011;51453;47.738;7.420;2023-08-30T11:59:40;1.00;;;0.90;;
64938;SDS011;51453;47.738;7.420;2023-08-30T12:02:08;1.60;;;1.00;;
64938;SDS011;51453;47.738;7.420;2023-08-30T12:04:40;1.55;;;1.23;;
64938;SDS011;51453;47.738;7.420;2023-08-30T12:07:10;1.23;;;1.13;;
64938;SDS011;51453;47.738;7.420;2023-08-30T12:09:46;3.22;;;1.10;;
64938;SDS011;51453;47.738;7.420;2023-08-30T12:12:11;2.97;;;1.00;;
64938;SDS011;51453;47.738;7.420;2023-08-30T12:14:37;3.75;;;1.20;;
64938;SDS011;51453;47.738;7.420;2023-08-30T12:17:03;1.25;;;1.10;;
64938;SDS011;51453;47.738;7.420;2023-08-30T12:19:31;2.85;;;1.05;;
64938;SDS011;51453;47.738;7.420;2023-08-30T12:22:03;2.05;;;0.80;;
64938;SDS011;51453;47.738;7.420;2023-08-30T12:24:44;2.63;;;1.17;;
64938;SDS011;51453;47.738;7.420;2023-08-30T12:27:11;1.73;;;1.05;;
64938;SDS011;51453;47.738;7.420;2023-08-30T12:29:37;3.25;;;1.00;;
64938;SDS011;51453;47.738;7.420;2023-08-30T12:32:02;0.90;;;0.90;;
64938;SDS011;51453;47.738;7.420;2023-08-30T12:34:28;1.55;;;0.75;;
64938;SDS011;51453;47.738;7.420;2023-08-30T12:36:54;1.25;;;0.90;;
64938;SDS011;51453;47.738;7.420;2023-08-30T12:39:20;1.95;;;1.00;;
64938;SDS011;51453;47.738;7.420;2023-08-30T12:41:45;1.23;;;1.10;;
64938;SDS011;51453;47.738;7.420;2023-08-30T12:44:12;1.33;;;0.90;;
64938;SDS011;51453;47.738;7.420;2023-08-30T12:46:38;2.13;;;0.73;;
64938;SDS011;51453;47.738;7.420;2023-08-30T12:49:03;1.40;;;0.98;;
64938;SDS011;51453;47.738;7.420;2023-08-30T12:51:30;0.90;;;0.90;;
64938;SDS011;51453;47.738;7.420;2023-08-30T12:53:56;1.85;;;1.00;;
64938;SDS011;51453;47.738;7.420;2023-08-30T12:56:21;1.23;;;0.80;;
64938;SDS011;51453;47.738;7.420;2023-08-30T12:58:47;1.38;;;0.80;;
64938;SDS011;51453;47.738;7.420;2023-08-30T13:01:12;0.85;;;0.85;;
64938;SDS011;51453;47.738;7.420;2023-08-30T13:03:38;0.93;;;0.93;;
64938;SDS011;51453;47.738;7.420;2023-08-30T13:06:04;1.63;;;0.70;;
64938;SDS011;51453;47.738;7.420;2023-08-30T13:08:30;1.90;;;1.05;;
64938;SDS011;51453;47.738;7.420;2023-08-30T13:10:58;1.30;;;0.88;;
64938;SDS011;51453;47.738;7.420;2023-08-30T13:13:24;0.70;;;0.70;;
64938;SDS011;51453;47.738;7.420;2023-08-30T13:15:50;1.48;;;0.90;;
64938;SDS011;51453;47.738;7.420;2023-08-30T13:18:16;6.32;;;0.98;;
64938;SDS011;51453;47.738;7.420;2023-08-30T13:20:42;2.92;;;1.00;;
64938;SDS011;51453;47.738;7.420;2023-08-30T13:23:08;1.55;;;0.90;;
64938;SDS011;51453;47.738;7.420;2023-08-30T13:25:37;3.88;;;1.00;;
64938;SDS011;51453;47.738;7.420;2023-08-30T13:28:04;4.97;;;0.90;;
64938;SDS011;51453;47.738;7.420;2023-08-30T13:30:30;1.63;;;0.90;;
64938;SDS011;51453;47.738;7.420;2023-08-30T13:32:55;3.78;;;1.17;;
64938;SDS011;51453;47.738;7.420;2023-08-30T13:35:21;4.60;;;1.40;;
64938;SDS011;51453;47.738;7.420;2023-08-30T13:37:47;3.10;;;1.23;;
64938;SDS011;51453;47.738;7.420;2023-08-30T13:40:13;1.17;;;1.08;;
64938;SDS011;51453;47.738;7.420;2023-08-30T13:42:38;3.03;;;1.30;;
64938;SDS011;51453;47.738;7.420;2023-08-30T13:45:04;2.10;;;1.08;;
64938;SDS011;51453;47.738;7.420;2023-08-30T13:47:31;3.65;;;1.20;;
64938;SDS011;51453;47.738;7.420;2023-08-30T13:49:57;2.20;;;1.20;;
64938;SDS011;51453;47.738;7.420;2023-08-30T13:52:24;3.33;;;1.33;;
64938;SDS011;51453;47.738;7.420;2023-08-30T13:54:50;1.45;;;1.30;;
64938;SDS011;51453;47.738;7.420;2023-08-30T13:57:16;1.95;;;1.30;;
64938;SDS011;51453;47.738;7.420;2023-08-30T13:59:42;2.88;;;1.25;;
64938;SDS011;51453;47.738;7.420;2023-08-30T14:02:08;1.48;;;1.17;;
64938;SDS011;51453;47.738;7.420;2023-08-30T14:04:33;1.38;;;1.27;;
64938;SDS011;51453;47.738;7.420;2023-08-30T14:07:01;0.95;;;0.95;;
64938;SDS011;51453;47.738;7.420;2023-08-30T14:09:28;1.80;;;1.20;;
64938;SDS011;51453;47.738;7.420;2023-08-30T14:11:54;2.08;;;1.30;;
64938;SDS011;51453;47.738;7.420;2023-08-30T14:14:20;2.55;;;1.10;;
64938;SDS011;51453;47.738;7.420;2023-08-30T14:16:46;2.47;;;1.13;;
64938;SDS011;51453;47.738;7.420;2023-08-30T14:19:12;1.30;;;1.17;;
64938;SDS011;51453;47.738;7.420;2023-08-30T14:21:37;1.15;;;1.05;;
64938;SDS011;51453;47.738;7.420;2023-08-30T14:24:03;1.27;;;1.17;;
64938;SDS011;51453;47.738;7.420;2023-08-30T14:26:29;2.63;;;1.40;;
64938;SDS011;51453;47.738;7.420;2023-08-30T14:28:54;1.65;;;1.20;;
64938;SDS011;51453;47.738;7.420;2023-08-30T14:31:20;4.28;;;1.10;;
64938;SDS011;51453;47.738;7.420;2023-08-30T14:33:46;1.40;;;1.05;;
64938;SDS011;51453;47.738;7.420;2023-08-30T14:36:12;1.30;;;1.00;;
64938;SDS011;51453;47.738;7.420;2023-08-30T14:38:38;2.25;;;1.30;;
64938;SDS011;51453;47.738;7.420;2023-08-30T14:41:05;1.65;;;1.27;;
64938;SDS011;51453;47.738;7.420;2023-08-30T14:43:31;1.92;;;1.30;;
64938;SDS011;51453;47.738;7.420;2023-08-30T14:46:01;1.23;;;1.13;;
64938;SDS011;51453;47.738;7.420;2023-08-30T14:48:27;4.33;;;1.10;;
64938;SDS011;51453;47.738;7.420;2023-08-30T14:50:53;1.25;;;1.15;;
64938;SDS011;51453;47.738;7.420;2023-08-30T14:53:19;2.60;;;1.38;;
64938;SDS011;51453;47.738;7.420;2023-08-30T14:55:45;2.53;;;1.70;;
64938;SDS011;51453;47.738;7.420;2023-08-30T14:58:13;2.42;;;0.98;;